createdAt,value
2023-02-14T00:02:14.751Z,372.73
2023-02-14T00:07:38.772Z,478.73
2023-02-14T00:13:09.761Z,429.58
2023-02-14T00:18:57.727Z,324.52
2023-02-14T00:24:25.751Z,330.90
2023-02-14T00:29:50.808Z,206.68
2023-02-14T00:35:19.022Z,48.88
2023-02-14T00:40:45.768Z,14.32
2023-02-14T00:46:10.810Z,6.80
2023-02-14T00:51:38.752Z,6.47
2023-02-14T00:57:02.774Z,6.72
2023-02-14T01:02:27.876Z,6.43
2023-02-14T01:07:54.811Z,6.75
2023-02-14T01:13:26.779Z,6.90
2023-02-14T01:18:52.775Z,7.13
2023-02-14T01:24:22.763Z,7.05
2023-02-14T01:29:47.826Z,7.88
2023-02-14T01:35:11.784Z,7.68
2023-02-14T01:40:39.980Z,37.28
2023-02-14T01:46:04.866Z,8.32
2023-02-14T01:51:31.829Z,7.07
2023-02-14T01:57:03.801Z,23.30
2023-02-14T02:02:30.896Z,8.25
2023-02-14T02:07:55.826Z,11.95
2023-02-14T02:13:28.817Z,27.15
2023-02-14T02:19:09.836Z,54.72
2023-02-14T02:24:50.837Z,135.02
2023-02-14T02:30:29.095Z,137.35
2023-02-14T02:36:25.829Z,76.32
2023-02-14T02:41:59.822Z,220.95
2023-02-14T02:47:33.843Z,269.83
2023-02-14T02:53:15.878Z,439.90
2023-02-14T02:58:46.834Z,371.58
2023-02-14T03:04:28.960Z,98.03
2023-02-14T03:10:14.081Z,102.05
2023-02-14T03:16:00.878Z,182.13
2023-02-14T03:21:38.905Z,398.08
2023-02-14T03:27:14.854Z,193.57
2023-02-14T03:32:49.815Z,95.82
2023-02-14T03:38:20.989Z,298.65
2023-02-14T03:43:51.869Z,284.83
2023-02-14T03:49:21.881Z,168.10
2023-02-14T03:54:49.840Z,161.38
2023-02-14T04:00:18.862Z,363.88
2023-02-14T04:05:45.017Z,220.93
2023-02-14T04:11:10.842Z,107.72
2023-02-14T04:16:58.834Z,28.10
2023-02-14T04:22:23.862Z,20.05
2023-02-14T04:27:47.905Z,7.25
2023-02-14T04:33:17.058Z,11.70
2023-02-14T04:38:40.864Z,62.90
2023-02-14T04:44:05.864Z,18.60
2023-02-14T04:49:33.923Z,31.55
2023-02-14T04:54:58.912Z,22.92
2023-02-14T05:00:24.974Z,87.85
2023-02-14T05:05:52.871Z,46.25
2023-02-14T05:11:16.914Z,29.08
2023-02-14T05:16:41.977Z,48.97
2023-02-14T05:22:08.886Z,437.83
2023-02-14T05:27:34.128Z,267.60
2023-02-14T05:32:57.920Z,57.50
2023-02-14T05:38:25.889Z,37.75
2023-02-14T05:43:50.878Z,10.50
2023-02-14T05:49:15.902Z,10.55
2023-02-14T05:54:43.899Z,10.48
2023-02-14T06:00:08.894Z,10.07
2023-02-14T06:05:35.152Z,10.15
2023-02-14T06:11:02.977Z,8.93
2023-02-14T06:16:26.932Z,8.75
2023-02-14T06:21:51.917Z,9.18
2023-02-14T06:27:18.932Z,9.32
2023-02-14T06:32:43.947Z,9.15
2023-02-14T06:38:08.946Z,8.60
2023-02-14T06:43:36.920Z,10.50
2023-02-14T06:49:00.943Z,9.77
2023-02-14T06:54:26.887Z,8.40
2023-02-14T06:59:53.906Z,8.25
2023-02-14T07:05:19.016Z,8.13
2023-02-14T07:10:43.944Z,8.93
2023-02-14T07:16:12.201Z,9.75
2023-02-14T07:21:35.926Z,12.73
2023-02-14T07:27:00.917Z,11.55
2023-02-14T07:32:29.928Z,12.10
2023-02-14T07:37:54.931Z,11.02
2023-02-14T07:43:20.277Z,12.15
2023-02-14T07:48:47.900Z,11.20
2023-02-14T07:54:11.923Z,9.98
2023-02-14T07:59:43.929Z,10.02
2023-02-14T08:05:12.039Z,10.98
2023-02-14T08:10:35.959Z,11.07
2023-02-14T08:16:18.239Z,12.70
2023-02-14T08:21:45.950Z,11.25
2023-02-14T08:27:10.955Z,12.10
2023-02-14T08:32:37.021Z,11.93
2023-02-14T08:38:04.994Z,12.18
2023-02-14T08:43:33.275Z,10.68
2023-02-14T08:49:00.078Z,11.80
2023-02-14T08:54:26.966Z,11.23
2023-02-14T08:59:51.931Z,10.15
2023-02-14T09:05:17.980Z,9.95
2023-02-14T09:10:52.926Z,8.88
2023-02-14T09:16:20.036Z,9.68
2023-02-14T09:21:46.175Z,9.32
2023-02-14T09:27:14.010Z,9.85
2023-02-14T09:32:38.950Z,9.55
2023-02-14T09:38:16.951Z,9.52
2023-02-14T09:43:50.970Z,9.23
2023-02-14T09:49:23.074Z,8.88
2023-02-14T09:54:51.134Z,6.97
2023-02-14T10:00:29.975Z,7.38
2023-02-14T10:05:59.957Z,7.38
2023-02-14T10:11:30.991Z,6.75
2023-02-14T10:17:03.012Z,6.90
2023-02-14T10:22:31.987Z,6.38
2023-02-14T10:28:00.045Z,7.20
2023-02-14T10:33:30.014Z,6.43
2023-02-14T10:39:02.983Z,6.22
2023-02-14T11:09:47.915Z,6.07
2023-02-14T11:38:37.000Z,5.47
2023-02-14T11:44:02.010Z,4.70
2023-02-14T11:49:38.008Z,4.97
2023-02-14T11:55:04.989Z,4.22
2023-02-14T12:00:32.997Z,5.95
2023-02-14T12:06:07.027Z,5.50
2023-02-14T12:11:36.128Z,4.70
2023-02-14T12:17:11.102Z,5.38
2023-02-14T12:22:41.034Z,4.60
2023-02-14T12:28:14.055Z,4.90
2023-02-14T12:33:39.041Z,4.40
2023-02-14T12:39:24.023Z,6.38
2023-02-14T12:45:01.074Z,4.20
2023-02-14T12:50:44.031Z,4.45
2023-02-14T12:56:20.088Z,5.18
2023-02-14T13:02:31.119Z,4.28
2023-02-14T13:08:10.044Z,3.63
2023-02-14T13:13:42.155Z,4.68
2023-02-14T13:19:15.057Z,3.30
2023-02-14T13:24:43.068Z,3.40
2023-02-14T13:30:13.125Z,4.20
2023-02-14T13:35:44.084Z,3.33
2023-02-14T13:41:12.068Z,3.30
2023-02-14T13:47:01.071Z,3.22
2023-02-14T13:52:55.067Z,3.05
2023-02-14T13:58:23.071Z,3.20
2023-02-14T14:04:07.146Z,3.90
2023-02-14T14:10:18.111Z,3.55
2023-02-14T14:15:43.091Z,2.90
2023-02-14T14:21:07.088Z,1.88
2023-02-14T14:26:46.096Z,2.88
2023-02-14T14:32:10.153Z,2.85
2023-02-14T14:37:37.081Z,2.63
2023-02-14T14:43:04.077Z,2.28
2023-02-14T14:48:36.230Z,2.22
2023-02-14T14:54:03.125Z,3.15
2023-02-14T14:59:42.135Z,2.33
2023-02-14T15:05:06.084Z,2.50
2023-02-14T15:10:33.097Z,2.42
2023-02-14T15:16:04.114Z,2.38
2023-02-14T15:21:30.164Z,2.70
2023-02-14T15:26:55.176Z,2.53
2023-02-14T15:32:23.292Z,2.35
2023-02-14T15:37:49.132Z,2.50
2023-02-14T15:43:25.145Z,2.85
2023-02-14T15:48:56.123Z,4.55
2023-02-14T15:54:30.132Z,4.53
2023-02-14T15:59:58.206Z,6.05
2023-02-14T16:05:35.156Z,3.83
2023-02-14T16:11:16.153Z,3.58
2023-02-14T16:17:06.162Z,3.30
2023-02-14T16:22:44.126Z,3.40
2023-02-14T16:28:09.235Z,3.55
2023-02-14T16:33:36.154Z,3.88
2023-02-14T16:39:11.165Z,4.53
2023-02-14T16:44:40.594Z,4.80
2023-02-14T16:50:04.294Z,4.88
2023-02-14T16:55:35.141Z,4.28
2023-02-14T17:01:01.470Z,6.03
2023-02-14T17:06:31.150Z,5.05
2023-02-14T17:12:01.192Z,5.10
2023-02-14T17:17:27.190Z,4.90
2023-02-14T17:22:52.176Z,4.85
2023-02-14T17:28:20.166Z,4.95
2023-02-14T17:33:45.273Z,5.82
2023-02-14T17:39:10.205Z,5.88
2023-02-14T17:44:42.203Z,5.15
2023-02-14T17:50:07.188Z,6.47
2023-02-14T17:55:31.183Z,5.82
2023-02-14T18:00:59.444Z,5.55
2023-02-14T18:06:26.183Z,6.75
2023-02-14T18:11:52.181Z,6.45
2023-02-14T18:17:19.216Z,6.45
2023-02-14T18:22:44.215Z,6.70
2023-02-14T18:28:08.220Z,9.52
2023-02-14T18:33:36.190Z,7.28
2023-02-14T18:39:03.210Z,7.60
2023-02-14T18:44:28.225Z,7.40
2023-02-14T18:49:55.264Z,7.53
2023-02-14T18:55:21.248Z,8.05
2023-02-14T19:00:45.265Z,7.97
2023-02-14T19:06:13.252Z,8.25
2023-02-14T19:11:40.213Z,8.10
2023-02-14T19:17:05.241Z,8.35
2023-02-14T19:22:32.240Z,9.88
2023-02-14T19:27:57.333Z,7.70
2023-02-14T19:33:21.245Z,10.65
2023-02-14T19:38:55.232Z,8.55
2023-02-14T19:44:25.035Z,8.77
2023-02-14T19:49:50.229Z,9.90
2023-02-14T19:55:26.253Z,9.63
2023-02-14T20:00:50.252Z,9.48
2023-02-14T20:06:15.336Z,10.30
2023-02-14T20:11:48.264Z,9.75
2023-02-14T20:17:15.258Z,9.30
2023-02-14T20:22:39.267Z,9.77
2023-02-14T20:28:07.240Z,9.48
2023-02-14T20:33:31.272Z,10.00
2023-02-14T20:38:56.277Z,11.45
2023-02-14T20:44:26.357Z,8.52
2023-02-14T20:49:51.281Z,11.23
2023-02-14T20:55:15.298Z,11.95
2023-02-14T21:00:43.287Z,8.85
2023-02-14T21:06:07.297Z,9.88
2023-02-14T21:11:34.287Z,15.65
2023-02-14T21:17:01.311Z,272.98
2023-02-14T21:22:26.264Z,13.48
2023-02-14T21:27:50.275Z,12.00
2023-02-14T21:33:22.304Z,10.98
2023-02-14T21:38:46.286Z,11.98
2023-02-14T21:44:12.398Z,11.40
2023-02-14T21:49:52.348Z,12.98
2023-02-14T21:55:17.275Z,12.10
2023-02-14T22:00:41.333Z,10.23
2023-02-14T22:06:14.294Z,9.13
2023-02-14T22:11:40.305Z,10.02
2023-02-14T22:17:06.299Z,8.73
2023-02-14T22:22:33.308Z,9.85
2023-02-14T22:27:58.301Z,8.68
2023-02-14T22:33:22.314Z,11.32
2023-02-14T22:38:50.330Z,8.80
2023-02-14T22:44:14.333Z,8.93
2023-02-14T22:49:39.339Z,10.55
2023-02-14T22:55:07.318Z,9.15
2023-02-14T23:00:33.406Z,9.32
2023-02-14T23:05:57.312Z,9.90
2023-02-14T23:11:26.304Z,8.68
2023-02-14T23:17:04.322Z,7.80
2023-02-14T23:22:31.362Z,9.02
2023-02-14T23:28:00.344Z,7.75
2023-02-14T23:33:25.461Z,7.82
2023-02-14T23:38:56.333Z,8.77
2023-02-14T23:44:25.339Z,7.77
2023-02-14T23:49:52.360Z,8.43
2023-02-14T23:55:17.334Z,7.70
